Time;durP1;ratioP1;P1;durP2;ratioP2;P2;SDS_P1;SDS_P2;PMS_P1;PMS_P2;Temp;Humidity;BMP_temperature;BMP_pressure;BME280_temperature;BME280_humidity;BME280_pressure;Samples;Min_cycle;Max_cycle;Signal;HPM_P1;HPM_P2
2022/08/25 00:01:19;;;;;;;5.82;3.22;;;;;;;25.38;87.41;101641.28;4900290;29;20059;-61
2022/08/25 00:03:46;;;;;;;8.00;4.20;;;;;;;25.31;86.80;101646.72;4898397;29;20059;-63
2022/08/25 00:06:14;;;;;;;5.82;3.55;;;;;;;25.21;88.21;101639.16;4900512;29;20056;-61
2022/08/25 00:08:41;;;;;;;6.60;3.85;;;;;;;25.17;88.15;101647.88;4898553;29;20057;-59
2022/08/25 00:11:12;;;;;;;5.82;3.60;;;;;;;25.15;87.13;101647.28;4905702;29;20062;-62
2022/08/25 00:13:45;;;;;;;9.30;4.30;;;;;;;25.12;87.78;101643.19;4905601;29;20052;-62
2022/08/25 00:16:16;;;;;;;7.63;4.22;;;;;;;25.06;87.78;101646.78;4903057;29;20084;-61
2022/08/25 00:18:45;;;;;;;10.00;4.38;;;;;;;25.01;87.50;101651.97;4887722;29;20552;-61
2022/08/25 00:21:14;;;;;;;8.95;4.22;;;;;;;24.92;87.25;101645.28;4904642;29;20485;-62
2022/08/25 00:23:41;;;;;;;6.57;3.78;;;;;;;24.84;87.68;101646.38;4901211;29;20055;-62
2022/08/25 00:26:09;;;;;;;7.28;4.30;;;;;;;24.82;86.92;101641.22;4908913;29;20405;-62
2022/08/25 00:28:36;;;;;;;8.18;4.97;;;;;;;24.77;86.80;101640.25;4904540;29;20088;-61
2022/08/25 00:31:04;;;;;;;5.93;4.05;;;;;;;24.79;86.15;101646.22;4898390;28;20055;-61
2022/08/25 00:33:30;;;;;;;8.07;4.35;;;;;;;24.70;86.86;101643.00;4901870;29;20056;-58
2022/08/25 00:35:58;;;;;;;7.82;4.10;;;;;;;24.69;86.26;101641.34;4894580;29;20059;-61
2022/08/25 00:38:25;;;;;;;6.40;4.32;;;;;;;24.63;86.84;101645.72;4908404;29;20056;-61
2022/08/25 00:41:05;;;;;;;6.93;4.18;;;;;;;24.61;87.29;101644.31;4895025;29;20052;-60
2022/08/25 00:43:56;;;;;;;8.90;4.20;;;;;;;24.60;85.97;101648.03;4905580;29;20052;-62
2022/08/25 00:46:27;;;;;;;10.90;5.32;;;;;;;24.56;86.31;101650.34;4903928;29;20067;-57
2022/08/25 00:49:01;;;;;;;8.85;4.25;;;;;;;24.53;85.91;101649.97;4885690;29;20476;-57
2022/08/25 00:51:57;;;;;;;10.52;4.68;;;;;;;24.50;85.56;101645.81;4904610;29;20235;-58
2022/08/25 00:54:51;;;;;;;6.78;4.57;;;;;;;24.47;86.35;101654.31;4887857;29;20060;-63
2022/08/25 00:57:26;;;;;;;7.78;4.47;;;;;;;24.45;85.20;101657.22;4893306;29;20055;-61
2022/08/25 01:00:04;;;;;;;8.52;4.45;;;;;;;24.41;85.15;101650.63;4908227;29;20060;-60
2022/08/25 01:02:31;;;;;;;7.90;4.72;;;;;;;24.39;84.74;101650.03;4911991;29;20067;-61
2022/08/25 01:04:58;;;;;;;7.93;4.63;;;;;;;24.34;85.44;101652.53;4903575;29;20099;-62
2022/08/25 01:07:24;;;;;;;7.32;4.95;;;;;;;24.28;85.40;101651.56;4898857;29;20394;-62
2022/08/25 01:09:52;;;;;;;8.40;4.45;;;;;;;24.24;85.25;101646.84;4894491;29;20059;-58
2022/08/25 01:12:19;;;;;;;10.55;5.05;;;;;;;24.18;85.67;101651.22;4902679;29;20056;-62
2022/08/25 01:14:47;;;;;;;10.10;5.00;;;;;;;24.14;85.30;101652.69;4896230;29;20430;-62
2022/08/25 01:17:16;;;;;;;11.13;5.40;;;;;;;24.14;85.73;101649.19;4900688;29;20791;-62
2022/08/25 01:19:43;;;;;;;11.48;4.93;;;;;;;24.00;85.86;101646.59;4905296;29;20736;-61
2022/08/25 01:22:10;;;;;;;9.63;5.43;;;;;;;23.97;85.98;101652.41;4878198;29;20048;-61
2022/08/25 01:24:44;;;;;;;8.60;4.88;;;;;;;23.95;86.55;101645.59;4898752;29;20075;-60
2022/08/25 01:27:10;;;;;;;7.25;5.10;;;;;;;23.88;86.04;101645.66;4882616;29;20100;-60
2022/08/25 01:29:37;;;;;;;10.10;5.60;;;;;;;23.87;86.32;101647.50;4898433;29;20082;-62
2022/08/25 01:32:07;;;;;;;8.02;5.13;;;;;;;23.88;85.84;101638.44;4891704;29;20052;-62
2022/08/25 01:34:36;;;;;;;8.05;5.05;;;;;;;23.82;86.13;101647.31;4893984;29;20671;-61
2022/08/25 01:37:04;;;;;;;9.98;5.13;;;;;;;23.81;85.75;101642.19;4888099;29;20048;-61
2022/08/25 01:39:37;;;;;;;9.50;5.30;;;;;;;23.77;85.45;101641.75;4889798;29;20051;-61
2022/08/25 01:42:10;;;;;;;9.57;5.07;;;;;;;23.77;84.92;101641.75;4902002;29;20083;-59
2022/08/25 01:44:39;;;;;;;11.38;4.93;;;;;;;23.75;84.83;101637.66;4890979;29;20052;-61
2022/08/25 01:47:06;;;;;;;11.05;5.15;;;;;;;23.71;83.95;101644.47;4901945;29;20062;-61
2022/08/25 01:49:34;;;;;;;7.75;4.60;;;;;;;23.66;84.61;101640.59;4883606;29;20631;-61
2022/08/25 01:52:23;;;;;;;7.90;5.10;;;;;;;23.63;84.50;101648.22;4887473;29;20058;-60
2022/08/25 01:54:50;;;;;;;9.35;5.07;;;;;;;23.55;85.07;101640.44;4890882;29;20159;-63
2022/08/25 01:57:16;;;;;;;11.75;5.10;;;;;;;23.51;84.88;101644.56;4895160;29;20044;-61
2022/08/25 01:59:43;;;;;;;7.47;4.97;;;;;;;23.53;84.49;101642.50;4891001;29;20044;-62
2022/08/25 02:02:10;;;;;;;11.40;5.23;;;;;;;23.47;85.06;101641.50;4893708;29;20062;-61
2022/08/25 02:04:38;;;;;;;9.07;5.00;;;;;;;23.43;85.84;101648.31;4893761;29;20167;-61
2022/08/25 02:07:08;;;;;;;9.77;5.60;;;;;;;23.46;85.45;101647.88;4878617;29;20056;-60
2022/08/25 02:09:36;;;;;;;15.27;5.72;;;;;;;23.41;85.71;101643.16;4893533;29;20063;-61
2022/08/25 02:12:02;;;;;;;8.80;5.18;;;;;;;23.40;84.85;101638.81;4895068;29;20048;-62
2022/08/25 02:14:29;;;;;;;7.05;4.80;;;;;;;23.37;84.71;101643.81;4894228;29;20501;-61
2022/08/25 02:16:56;;;;;;;9.50;4.82;;;;;;;23.37;84.02;101636.59;4900594;29;20051;-61
2022/08/25 02:19:24;;;;;;;11.65;4.82;;;;;;;23.41;83.85;101639.66;4885669;29;20056;-57
2022/08/25 02:21:51;;;;;;;7.47;5.15;;;;;;;23.38;84.48;101640.88;4884657;29;20056;-60
2022/08/25 02:24:18;;;;;;;9.63;4.95;;;;;;;23.39;84.44;101644.41;4888912;29;20053;-62
2022/08/25 02:26:44;;;;;;;10.13;5.18;;;;;;;23.36;84.14;101639.47;4888774;29;20425;-61
2022/08/25 02:29:11;;;;;;;10.00;5.15;;;;;;;23.37;84.52;101647.28;4883864;29;20156;-61
2022/08/25 02:31:38;;;;;;;8.48;4.78;;;;;;;23.40;84.26;101641.50;4885052;29;20506;-62
2022/08/25 02:34:05;;;;;;;10.52;5.43;;;;;;;23.41;84.11;101640.47;4887890;29;20056;-62
2022/08/25 02:36:32;;;;;;;7.57;4.97;;;;;;;23.39;84.34;101639.06;4888570;29;20513;-60
2022/08/25 02:38:59;;;;;;;9.20;5.50;;;;;;;23.40;83.25;101636.16;4904219;29;20094;-61
2022/08/25 02:41:26;;;;;;;8.35;5.10;;;;;;;23.41;84.34;101642.34;4894920;29;20144;-61
2022/08/25 02:43:58;;;;;;;9.68;4.95;;;;;;;23.41;83.93;101639.66;4896411;29;20059;-61
2022/08/25 02:46:24;;;;;;;8.90;5.13;;;;;;;23.38;82.49;101642.75;4892509;29;20520;-61
2022/08/25 02:48:52;;;;;;;8.50;5.32;;;;;;;23.42;82.58;101635.94;4886513;29;20056;-61
2022/08/25 02:51:20;;;;;;;7.25;4.50;;;;;;;23.46;82.15;101643.34;4907051;29;20158;-61
2022/08/25 02:53:47;;;;;;;7.55;5.07;;;;;;;23.40;82.18;101635.34;4893972;29;20560;-61
2022/08/25 02:56:17;;;;;;;7.47;4.63;;;;;;;23.42;81.81;101625.22;4895381;29;20052;-62
2022/08/25 02:58:44;;;;;;;9.60;4.53;;;;;;;23.38;81.83;101634.72;4888140;29;20433;-62
2022/08/25 03:01:11;;;;;;;8.93;4.63;;;;;;;23.37;81.77;101628.56;4896235;29;20056;-61
2022/08/25 03:03:39;;;;;;;8.68;4.95;;;;;;;23.38;81.09;101634.72;4895595;29;20363;-57
2022/08/25 03:06:08;;;;;;;6.80;4.72;;;;;;;23.31;81.66;101624.06;4900095;29;20112;-62
2022/08/25 03:08:36;;;;;;;5.57;4.00;;;;;;;23.31;81.14;101629.41;4903312;29;20044;-61
2022/08/25 03:11:04;;;;;;;8.50;5.10;;;;;;;23.29;81.36;101626.13;4889222;29;20052;-61
2022/08/25 03:13:31;;;;;;;7.35;4.38;;;;;;;23.24;81.30;101624.06;4903300;29;20059;-61
2022/08/25 03:15:59;;;;;;;5.23;4.30;;;;;;;23.25;80.98;101625.72;4894328;29;20433;-61
2022/08/25 03:18:26;;;;;;;8.75;4.50;;;;;;;23.15;81.80;101616.47;4896674;29;20056;-63
2022/08/25 03:20:53;;;;;;;8.43;5.05;;;;;;;23.12;81.84;101616.91;4893186;29;20063;-60
2022/08/25 03:23:20;;;;;;;7.93;4.65;;;;;;;23.05;82.29;101614.22;4900337;29;20682;-59
2022/08/25 03:28:32;;;;;;;7.15;4.68;;;;;;;22.94;82.00;101610.34;4887520;29;20143;-62
2022/08/25 03:31:00;;;;;;;7.43;4.68;;;;;;;22.92;82.59;101612.41;4900107;29;20056;-61
2022/08/25 03:33:30;;;;;;;7.68;4.63;;;;;;;22.84;81.38;101605.41;4892398;29;20056;-61
2022/08/25 03:35:58;;;;;;;6.75;4.40;;;;;;;22.85;82.38;101611.59;4900866;29;20498;-62
2022/08/25 03:38:25;;;;;;;8.20;4.78;;;;;;;22.84;82.56;101604.59;4893586;29;20074;-61
2022/08/25 03:40:52;;;;;;;8.00;4.80;;;;;;;22.85;82.05;101609.72;4900869;29;20053;-61
2022/08/25 03:43:19;;;;;;;9.30;4.13;;;;;;;22.83;81.76;101613.66;4885566;29;20053;-60
2022/08/25 03:45:46;;;;;;;9.98;5.20;;;;;;;22.76;81.88;101605.66;4900893;29;20420;-61
2022/08/25 03:48:14;;;;;;;9.20;5.13;;;;;;;22.76;81.81;101610.16;4898605;29;20036;-61
2022/08/25 03:50:48;;;;;;;10.35;5.72;;;;;;;22.75;82.48;101597.81;4887921;29;20497;-61
2022/08/25 03:53:18;;;;;;;7.93;5.07;;;;;;;22.72;81.91;101596.41;4897965;29;20063;-62
2022/08/25 03:55:45;;;;;;;10.43;5.78;;;;;;;22.68;81.92;101597.84;4885239;29;20060;-62
2022/08/25 03:58:11;;;;;;;10.50;6.10;;;;;;;22.67;82.20;101588.16;4891379;29;20564;-61
2022/08/25 04:00:38;;;;;;;11.63;5.72;;;;;;;22.65;81.80;101599.06;4895880;29;21098;-61
2022/08/25 04:03:05;;;;;;;10.65;5.80;;;;;;;22.59;82.35;101593.72;4906588;29;20448;-60
2022/08/25 04:05:31;;;;;;;12.23;5.97;;;;;;;22.56;82.49;101586.97;4900907;29;20052;-58
2022/08/25 04:08:00;;;;;;;10.05;6.28;;;;;;;22.55;83.02;101590.66;4891933;29;20139;-59
2022/08/25 04:10:27;;;;;;;10.65;5.38;;;;;;;22.55;82.89;101587.16;4895271;29;20056;-61
2022/08/25 04:12:54;;;;;;;9.13;5.70;;;;;;;22.51;83.20;101592.09;4881835;29;20501;-59
2022/08/25 04:15:24;;;;;;;10.05;6.15;;;;;;;22.47;83.81;101588.19;4893693;29;20083;-61
2022/08/25 04:17:57;;;;;;;11.85;5.68;;;;;;;22.45;83.36;101588.41;4887389;29;20108;-61
2022/08/25 04:20:24;;;;;;;10.98;5.53;;;;;;;22.40;83.00;101577.50;4902335;29;20111;-61
2022/08/25 04:22:50;;;;;;;13.48;5.80;;;;;;;22.40;83.66;101580.16;4903878;29;20131;-60
2022/08/25 04:25:17;;;;;;;12.45;5.53;;;;;;;22.37;83.71;101591.28;4879196;29;20529;-61
2022/08/25 04:27:43;;;;;;;10.07;5.82;;;;;;;22.34;83.83;101585.53;4904929;29;20048;-62
2022/08/25 04:30:10;;;;;;;8.68;5.75;;;;;;;22.32;84.35;101583.03;4900247;29;20067;-62
2022/08/25 04:32:36;;;;;;;14.40;5.93;;;;;;;22.27;84.41;101575.66;4900567;29;20056;-62
2022/08/25 04:35:04;;;;;;;11.73;5.80;;;;;;;22.30;84.19;101566.41;4901311;29;20059;-60
2022/08/25 04:37:32;;;;;;;13.60;5.95;;;;;;;22.26;84.08;101581.19;4897320;29;20734;-61
2022/08/25 04:39:59;;;;;;;13.02;7.28;;;;;;;22.24;84.32;101575.22;4897666;29;20679;-63
2022/08/25 04:42:26;;;;;;;13.93;9.35;;;;;;;22.17;84.94;101579.72;4897517;29;20052;-61
2022/08/25 04:44:53;;;;;;;12.82;8.18;;;;;;;22.19;84.90;101577.66;4902865;29;20052;-61
2022/08/25 04:47:20;;;;;;;13.52;7.28;;;;;;;22.10;85.39;101577.06;4896793;29;20095;-61
2022/08/25 04:49:46;;;;;;;15.98;6.85;;;;;;;22.06;85.52;101579.31;4900466;29;20445;-60
2022/08/25 04:52:13;;;;;;;10.05;6.70;;;;;;;22.02;85.88;101575.41;4890647;29;20060;-60
2022/08/25 04:54:40;;;;;;;8.55;6.18;;;;;;;21.99;86.50;101575.78;4902528;29;20052;-62
2022/08/25 04:57:07;;;;;;;12.02;6.07;;;;;;;22.00;85.93;101580.13;4899053;29;20048;-60
2022/08/25 04:59:33;;;;;;;8.48;5.85;;;;;;;21.95;85.71;101577.22;4895345;29;20051;-56
2022/08/25 05:02:04;;;;;;;10.45;5.97;;;;;;;21.94;86.26;101580.94;4901007;29;20595;-58
2022/08/25 05:04:33;;;;;;;13.00;6.35;;;;;;;21.93;86.21;101579.28;4892402;29;20044;-61
2022/08/25 05:07:00;;;;;;;10.98;6.28;;;;;;;21.90;87.32;101587.72;4897834;29;20052;-61
2022/08/25 05:09:27;;;;;;;13.23;5.97;;;;;;;21.85;88.06;101580.31;4892755;29;20497;-60
2022/08/25 05:11:54;;;;;;;7.78;6.00;;;;;;;21.83;88.13;101576.19;4901867;29;20058;-60
2022/08/25 05:14:21;;;;;;;9.30;5.97;;;;;;;21.82;88.09;101578.06;4898536;29;20056;-60
2022/08/25 05:16:52;;;;;;;12.23;6.07;;;;;;;21.81;87.95;101583.59;4895682;29;20056;-61
2022/08/25 05:19:18;;;;;;;10.10;6.07;;;;;;;21.80;87.21;101582.78;4880887;29;20052;-61
2022/08/25 05:21:45;;;;;;;10.02;5.65;;;;;;;21.81;87.41;101584.41;4887960;29;20052;-60
2022/08/25 05:24:11;;;;;;;12.57;5.70;;;;;;;21.79;87.22;101590.97;4900063;29;20053;-60
2022/08/25 05:26:38;;;;;;;8.95;5.60;;;;;;;21.81;87.39;101591.59;4896557;29;20099;-60
2022/08/25 05:29:05;;;;;;;10.02;5.65;;;;;;;21.77;87.62;101583.16;4905106;29;20498;-60
2022/08/25 05:31:32;;;;;;;8.60;5.60;;;;;;;21.82;87.25;101587.91;4898527;29;20141;-60
2022/08/25 05:34:06;;;;;;;8.75;5.60;;;;;;;21.82;87.47;101590.59;4890611;29;20048;-60
2022/08/25 05:36:33;;;;;;;7.72;5.30;;;;;;;21.78;88.42;101589.31;4892429;29;20056;-59
2022/08/25 05:38:59;;;;;;;8.88;5.40;;;;;;;21.78;88.49;101590.16;4890858;29;20056;-61
2022/08/25 05:41:29;;;;;;;7.25;5.40;;;;;;;21.81;86.22;101586.25;4898761;29;20056;-62
2022/08/25 05:43:56;;;;;;;12.20;5.50;;;;;;;21.80;88.65;101592.63;4893813;29;20480;-61
2022/08/25 05:46:23;;;;;;;7.53;5.00;;;;;;;21.80;87.77;101588.13;4897363;29;20195;-60
2022/08/25 05:48:49;;;;;;;10.75;5.65;;;;;;;21.81;88.55;101592.41;4884539;29;20049;-61
2022/08/25 05:51:16;;;;;;;9.65;5.22;;;;;;;21.80;88.50;101596.13;4901675;29;20426;-60
2022/08/25 05:53:46;;;;;;;10.68;5.28;;;;;;;21.85;87.42;101601.66;4895285;29;20060;-61
2022/08/25 05:56:13;;;;;;;6.85;5.00;;;;;;;21.89;87.99;101607.44;4889777;29;20055;-55
2022/08/25 05:58:41;;;;;;;9.02;5.70;;;;;;;21.90;88.95;101607.25;4893658;29;20564;-55
2022/08/25 06:03:54;;;;;;;10.10;5.10;;;;;;;21.95;86.78;101605.81;4895897;29;20049;-56
2022/08/25 06:06:22;;;;;;;9.25;4.93;;;;;;;22.03;87.32;101608.28;4893803;29;20064;-62
2022/08/25 06:08:49;;;;;;;12.30;5.15;;;;;;;22.02;85.68;101606.66;4889378;29;20163;-61
2022/08/25 06:11:15;;;;;;;11.45;5.28;;;;;;;22.04;87.02;101613.41;4890882;29;20067;-60
2022/08/25 06:13:42;;;;;;;8.25;4.97;;;;;;;22.04;87.34;101602.75;4884670;29;20513;-60
2022/08/25 06:16:08;;;;;;;7.53;5.00;;;;;;;22.08;87.15;101606.66;4895499;29;20056;-62
2022/08/25 06:18:35;;;;;;;8.82;4.35;;;;;;;22.14;87.44;101609.53;4895256;29;20151;-61
2022/08/25 06:21:13;;;;;;;9.63;5.28;;;;;;;22.21;84.81;101605.84;4899542;29;20066;-62
2022/08/25 06:23:39;;;;;;;9.27;5.13;;;;;;;22.22;85.20;101604.81;4892855;29;20636;-60
2022/08/25 06:26:09;;;;;;;8.43;5.05;;;;;;;22.29;84.59;101603.00;4893345;29;20791;-62
2022/08/25 06:28:39;;;;;;;8.15;4.63;;;;;;;22.30;84.32;101601.97;4904240;29;20054;-61
2022/08/25 06:31:05;;;;;;;8.73;4.40;;;;;;;22.38;85.66;101618.81;4894574;29;20524;-60
2022/08/25 06:33:32;;;;;;;10.43;5.10;;;;;;;22.39;84.87;101613.28;4897204;29;20048;-63
2022/08/25 06:35:58;;;;;;;7.22;4.97;;;;;;;22.39;85.06;101615.94;4886216;29;20071;-66
2022/08/25 06:38:26;;;;;;;7.00;4.88;;;;;;;22.44;84.31;101610.81;4888480;29;20093;-61
2022/08/25 06:40:52;;;;;;;6.77;3.90;;;;;;;22.49;84.78;101608.34;4889877;29;20052;-61
2022/08/25 06:43:20;;;;;;;9.23;4.65;;;;;;;22.54;82.00;101609.56;4901257;29;20897;-62
2022/08/25 06:45:47;;;;;;;14.57;5.47;;;;;;;22.54;83.67;101591.66;4902566;29;20064;-61
2022/08/25 06:48:14;;;;;;;9.07;4.90;;;;;;;22.59;85.48;101604.44;4888649;29;20045;-62
2022/08/25 06:50:42;;;;;;;8.73;5.03;;;;;;;22.58;84.77;101608.13;4902298;29;20055;-62
2022/08/25 06:53:08;;;;;;;10.18;4.70;;;;;;;22.62;83.26;101601.31;4879670;29;20067;-62
2022/08/25 06:55:35;;;;;;;12.48;6.03;;;;;;;22.63;84.21;101603.78;4888004;29;20501;-62
2022/08/25 06:58:03;;;;;;;9.15;5.07;;;;;;;22.73;82.45;101603.38;4884723;29;20086;-61
2022/08/25 07:00:31;;;;;;;7.82;3.78;;;;;;;22.90;80.74;101606.44;4901705;29;20060;-58
2022/08/25 07:02:59;;;;;;;14.63;4.30;;;;;;;22.96;81.65;101602.09;4899996;29;20063;-59
2022/08/25 07:05:27;;;;;;;;;;;;;;;23.05;81.05;101603.53;4893460;29;20056;-60
2022/08/25 07:08:10;;;;;;;12.65;5.05;;;;;;;23.05;81.47;101603.53;4885843;29;19927;-60
2022/08/25 07:10:36;;;;;;;7.50;4.13;;;;;;;23.12;80.58;101600.84;4884526;29;20055;-61
2022/08/25 07:13:03;;;;;;;8.32;5.03;;;;;;;23.14;82.84;101604.94;4895869;29;20052;-61
2022/08/25 07:15:29;;;;;;;6.47;4.15;;;;;;;23.18;81.31;101592.78;4894097;29;20056;-61
2022/08/25 07:17:56;;;;;;;11.20;4.80;;;;;;;23.26;82.18;101597.09;4899957;29;20498;-60
2022/08/25 07:20:23;;;;;;;11.40;4.70;;;;;;;23.30;82.93;101591.09;4900227;29;20086;-61
2022/08/25 07:22:50;;;;;;;9.23;4.75;;;;;;;23.41;83.48;101586.94;4891132;29;20140;-60
2022/08/25 07:25:17;;;;;;;11.32;4.35;;;;;;;23.48;80.23;101589.56;4903690;29;20052;-60
2022/08/25 07:27:44;;;;;;;11.60;4.40;;;;;;;23.54;81.65;101591.41;4892625;29;20525;-61
2022/08/25 07:30:10;;;;;;;9.85;4.57;;;;;;;23.61;79.53;101594.06;4898723;29;20520;-61
2022/08/25 07:32:37;;;;;;;10.23;4.00;;;;;;;23.76;77.32;101591.91;4892608;29;20053;-60
2022/08/25 07:35:14;;;;;;;7.93;3.78;;;;;;;23.88;75.38;101592.88;4894558;29;20052;-60
2022/08/25 07:37:48;;;;;;;11.10;3.90;;;;;;;23.94;78.51;101590.38;4881783;29;20088;-60
2022/08/25 07:40:36;;;;;;;6.00;3.85;;;;;;;24.02;77.65;101601.66;4894344;29;20045;-61
2022/08/25 07:43:08;;;;;;;7.97;3.10;;;;;;;24.12;75.11;101597.66;4897391;29;20063;-64
2022/08/25 07:45:38;;;;;;;6.82;3.47;;;;;;;24.22;73.89;101598.81;4893753;29;20060;-62
2022/08/25 07:48:18;;;;;;;7.55;3.80;;;;;;;24.35;72.15;101597.09;4888868;29;20135;-61
2022/08/25 07:50:46;;;;;;;7.43;3.28;;;;;;;24.44;72.83;101593.91;4886121;29;20063;-61
2022/08/25 07:53:15;;;;;;;7.78;3.33;;;;;;;24.53;71.42;101591.78;4902540;29;20107;-60
2022/08/25 07:55:41;;;;;;;7.10;3.00;;;;;;;24.57;71.47;101592.97;4899396;29;20074;-61
2022/08/25 07:58:10;;;;;;;7.22;3.70;;;;;;;24.62;71.01;101586.94;4902908;29;20155;-60
2022/08/25 08:00:39;;;;;;;4.72;3.20;;;;;;;24.78;71.79;101597.13;4907803;29;20059;-61
2022/08/25 08:03:08;;;;;;;8.25;3.40;;;;;;;24.91;70.18;101589.94;4896274;29;20497;-60
2022/08/25 08:05:49;;;;;;;6.85;3.58;;;;;;;25.06;70.87;101593.09;4885786;29;20072;-60
2022/08/25 08:08:15;;;;;;;6.07;3.70;;;;;;;25.18;69.82;101596.66;4886689;29;20052;-61
2022/08/25 08:10:44;;;;;;;5.10;3.10;;;;;;;25.33;69.83;101590.94;4899990;29;20063;-62
2022/08/25 08:13:32;;;;;;;6.88;3.25;;;;;;;25.59;68.59;101584.38;4892759;29;20163;-62
2022/08/25 08:16:08;;;;;;;7.95;3.70;;;;;;;25.80;66.87;101583.06;4892934;29;20268;-62
2022/08/25 08:18:34;;;;;;;10.23;3.38;;;;;;;26.03;66.14;101573.41;4891617;29;20051;-62
2022/08/25 08:21:01;;;;;;;7.72;3.95;;;;;;;26.28;66.43;101573.22;4903200;29;20132;-61
2022/08/25 08:23:29;;;;;;;6.63;3.30;;;;;;;26.60;67.05;101570.22;4902828;29;20048;-62
2022/08/25 08:25:56;;;;;;;7.22;3.47;;;;;;;26.84;66.74;101560.22;4903779;29;20525;-62
2022/08/25 08:28:26;;;;;;;6.75;3.72;;;;;;;27.10;62.91;101569.63;4898102;29;20056;-61
2022/08/25 08:30:53;;;;;;;9.82;3.38;;;;;;;27.39;62.65;101570.50;4881387;29;20064;-61
2022/08/25 08:33:21;;;;;;;;;;;;;;;27.69;60.97;101564.03;4891140;29;20167;-60
2022/08/25 08:35:54;;;;;;;12.02;3.67;;;;;;;27.97;62.16;101565.88;4886730;29;20477;-61
2022/08/25 08:38:21;;;;;;;7.38;3.50;;;;;;;28.14;61.34;101552.38;4901898;29;20294;-57
2022/08/25 08:44:44;;;;;;;7.78;3.08;;;;;;;28.77;58.41;101558.41;4897787;29;20056;-61
2022/08/25 08:47:10;;;;;;;6.30;3.35;;;;;;;28.94;58.95;101552.97;4887990;29;20056;-61
2022/08/25 08:49:53;;;;;;;7.93;3.70;;;;;;;29.20;58.36;101545.16;4890652;29;20048;-61
2022/08/25 08:52:23;;;;;;;6.30;3.58;;;;;;;29.38;57.98;101541.28;4888121;29;20135;-61
2022/08/25 08:54:59;;;;;;;6.32;3.70;;;;;;;29.58;57.38;101538.81;4895821;29;20056;-61
2022/08/25 08:57:27;;;;;;;7.43;3.60;;;;;;;29.69;55.34;101531.59;4891549;29;20052;-62
2022/08/25 09:00:04;;;;;;;7.07;3.70;;;;;;;29.90;55.45;101532.59;4887749;29;20050;-59
2022/08/25 09:02:38;;;;;;;10.57;3.60;;;;;;;30.06;55.48;101538.94;4910768;29;20060;-61
2022/08/25 09:05:19;;;;;;;6.80;3.65;;;;;;;30.16;55.02;101536.28;4887332;29;20748;-62
2022/08/25 09:07:51;;;;;;;11.77;3.53;;;;;;;30.35;54.84;101525.88;4907955;29;20147;-61
2022/08/25 09:10:23;;;;;;;8.07;3.50;;;;;;;30.52;55.42;101536.53;4893141;29;20152;-61
2022/08/25 09:13:15;;;;;;;7.05;3.33;;;;;;;30.64;54.45;101543.59;4886923;29;20851;-62
2022/08/25 09:19:12;;;;;;;8.65;3.17;;;;;;;30.98;53.42;101535.13;4893715;29;20429;-61
2022/08/25 09:22:05;;;;;;;9.50;3.10;;;;;;;31.14;54.00;101534.06;4891870;29;20056;-62
2022/08/25 09:25:10;;;;;;;7.55;3.60;;;;;;;31.25;52.63;101534.91;4895956;29;20553;-61
2022/08/25 09:28:26;;;;;;;10.65;3.60;;;;;;;31.37;51.90;101529.25;4883630;29;20049;-62
2022/08/25 09:30:56;;;;;;;5.70;3.30;;;;;;;31.60;51.21;101533.34;4818907;29;20046;-61
2022/08/25 09:33:28;;;;;;;6.80;3.40;;;;;;;31.76;52.58;101529.56;4804706;29;20090;-62
2022/08/25 09:35:56;;;;;;;7.15;3.40;;;;;;;31.86;50.92;101529.53;4816381;29;20576;-62
2022/08/25 09:38:35;;;;;;;7.35;3.28;;;;;;;32.00;51.79;101524.38;4804563;29;20089;-61
2022/08/25 09:41:03;;;;;;;6.35;3.40;;;;;;;32.13;49.98;101523.03;4810165;29;20441;-61
2022/08/25 09:43:52;;;;;;;9.88;3.22;;;;;;;32.28;50.68;101519.44;4810322;29;20058;-65
2022/08/25 09:46:28;;;;;;;7.05;3.53;;;;;;;32.45;49.67;101511.78;4824095;29;20220;-62
2022/08/25 09:49:09;;;;;;;6.38;3.63;;;;;;;32.59;49.75;101513.94;4816427;29;20070;-62
2022/08/25 09:51:39;;;;;;;6.20;3.28;;;;;;;32.70;48.90;101512.81;4810474;29;20374;-62
2022/08/25 09:54:11;;;;;;;5.78;3.40;;;;;;;32.80;49.46;101507.31;4818008;29;20054;-62
2022/08/25 09:57:00;;;;;;;12.05;3.53;;;;;;;32.94;48.25;101507.50;4808100;29;20401;-60
2022/08/25 09:59:31;;;;;;;8.32;3.28;;;;;;;32.98;47.96;101505.84;4821583;29;20066;-63
2022/08/25 10:02:22;;;;;;;5.05;3.05;;;;;;;33.13;47.86;101502.28;4815937;29;20049;-61
2022/08/25 10:04:52;;;;;;;8.38;3.40;;;;;;;33.25;47.76;101505.44;4846997;29;20544;-61
2022/08/25 10:07:26;;;;;;;12.57;3.60;;;;;;;33.44;47.61;101499.31;4891472;29;20063;-60
2022/08/25 10:09:57;;;;;;;7.47;3.00;;;;;;;33.65;46.56;101505.41;4892415;29;20040;-61
2022/08/25 10:12:31;;;;;;;5.90;3.05;;;;;;;33.86;49.89;101498.69;4892550;29;20067;-61
2022/08/25 10:14:58;;;;;;;6.22;3.20;;;;;;;33.94;45.58;101488.28;4899478;29;20064;-63
2022/08/25 10:17:31;;;;;;;4.72;3.30;;;;;;;34.12;44.59;101492.97;4899355;29;20056;-61
2022/08/25 10:20:20;;;;;;;7.70;2.78;;;;;;;34.32;44.11;101478.34;4893687;29;20048;-63
2022/08/25 10:22:47;;;;;;;6.32;2.63;;;;;;;34.36;44.40;101486.72;4899186;29;20105;-63
2022/08/25 10:25:24;;;;;;;4.03;2.67;;;;;;;34.51;43.54;101489.28;4895018;29;20066;-61
2022/08/25 10:28:23;;;;;;;9.82;2.92;;;;;;;34.65;43.48;101489.34;4902946;29;20059;-62
2022/08/25 10:31:14;;;;;;;5.80;3.05;;;;;;;34.77;44.61;101473.41;4892614;29;20052;-62
2022/08/25 10:34:20;;;;;;;6.63;2.80;;;;;;;34.80;42.89;101474.75;4889724;29;20094;-63
2022/08/25 10:37:28;;;;;;;4.27;2.67;;;;;;;35.06;41.73;101467.78;4884182;29;20052;-60
2022/08/25 10:40:23;;;;;;;7.00;3.03;;;;;;;35.20;42.47;101467.88;4895670;29;20295;-62
2022/08/25 10:43:12;;;;;;;7.28;3.03;;;;;;;35.34;41.87;101458.94;4896545;29;20066;-61
2022/08/25 10:45:48;;;;;;;8.27;2.90;;;;;;;35.49;41.23;101455.16;4901277;29;20556;-62
2022/08/25 10:48:51;;;;;;;7.47;2.58;;;;;;;35.67;41.82;101448.84;4891579;29;20138;-63
2022/08/25 10:51:27;;;;;;;5.22;2.75;;;;;;;35.82;39.96;101440.34;4899974;29;20059;-63
2022/08/25 10:54:04;;;;;;;3.55;2.47;;;;;;;35.95;40.30;101437.94;4900659;29;20059;-62
2022/08/25 10:56:39;;;;;;;5.57;2.35;;;;;;;36.16;40.13;101424.69;4897526;29;20060;-61
2022/08/25 10:59:21;;;;;;;7.80;3.03;;;;;;;36.32;40.74;101427.91;4896159;29;20355;-61
2022/08/25 11:02:02;;;;;;;5.40;2.65;;;;;;;36.41;41.66;101420.63;4907179;29;20051;-61
2022/08/25 11:04:47;;;;;;;5.65;2.92;;;;;;;36.22;38.49;101420.75;4888142;29;20056;-61
2022/08/25 11:07:44;;;;;;;6.25;2.60;;;;;;;36.17;38.33;101415.41;4895997;29;20056;-63
2022/08/25 11:10:19;;;;;;;8.55;2.80;;;;;;;36.26;38.98;101421.75;4895644;29;20048;-60
2022/08/25 11:12:53;;;;;;;5.93;3.00;;;;;;;36.45;40.49;101421.63;4895086;29;20056;-59
2022/08/25 11:15:32;;;;;;;4.43;2.92;;;;;;;36.61;40.02;101417.41;4889412;29;20059;-62
2022/08/25 11:18:10;;;;;;;6.00;2.92;;;;;;;36.78;38.47;101410.50;4893317;29;20082;-62
2022/08/25 11:21:00;;;;;;;5.63;2.75;;;;;;;36.93;38.63;101410.16;4901096;29;20084;-62
2022/08/25 11:23:39;;;;;;;5.82;2.72;;;;;;;36.94;37.96;101403.53;4895314;29;20061;-62
2022/08/25 11:26:11;;;;;;;7.63;2.65;;;;;;;36.99;38.76;101405.34;4892475;29;20056;-62
2022/08/25 11:28:45;;;;;;;4.40;2.50;;;;;;;37.07;39.60;101401.88;4892708;29;20052;-61
2022/08/25 11:31:13;;;;;;;4.47;2.40;;;;;;;37.12;38.15;101403.66;4900348;29;20059;-62
2022/08/25 11:33:42;;;;;;;5.50;2.70;;;;;;;37.24;37.38;101401.19;4882688;29;20064;-64
2022/08/25 11:36:31;;;;;;;5.90;2.60;;;;;;;37.31;36.59;101398.00;4899571;29;20485;-61
2022/08/25 11:39:20;;;;;;;3.63;2.40;;;;;;;37.58;38.59;101400.53;4899628;29;20051;-61
2022/08/25 11:42:30;;;;;;;4.22;2.45;;;;;;;37.52;36.35;101395.50;4902082;29;20064;-62
2022/08/25 11:45:34;;;;;;;5.80;2.30;;;;;;;37.63;37.25;101382.41;4887401;29;20425;-62
2022/08/25 11:48:26;;;;;;;3.08;2.22;;;;;;;37.44;34.92;101394.38;4866642;29;20688;-60
2022/08/25 11:51:09;;;;;;;4.30;2.05;;;;;;;37.74;36.70;101381.78;4862966;29;20049;-63
2022/08/25 11:53:38;;;;;;;4.53;2.38;;;;;;;37.87;36.42;101382.81;4865113;29;20061;-61
2022/08/25 11:56:32;;;;;;;6.18;2.10;;;;;;;37.91;35.58;101381.03;4854396;29;20053;-63
2022/08/25 11:59:00;;;;;;;5.25;2.20;;;;;;;37.81;36.07;101375.84;4859661;29;20137;-61